createdAt,value
2022-09-07T00:01:10.633Z,99999.59
2022-09-07T00:03:38.157Z,100000.50
2022-09-07T00:06:09.568Z,99998.75
2022-09-07T00:08:39.764Z,99990.78
2022-09-07T00:11:13.884Z,99995.22
2022-09-07T00:13:44.142Z,99989.97
2022-09-07T00:16:25.105Z,99981.91
2022-09-07T00:18:55.740Z,99976.59
2022-09-07T00:21:24.339Z,99978.41
2022-09-07T00:23:52.892Z,99971.25
2022-09-07T00:26:30.368Z,99974.84
2022-09-07T00:29:03.984Z,99981.03
2022-09-07T00:31:32.482Z,99975.72
2022-09-07T00:34:02.109Z,99978.34
2022-09-07T00:36:29.929Z,99993.38
2022-09-07T00:38:58.395Z,99989.78
2022-09-07T00:41:25.871Z,100007.47
2022-09-07T00:44:43.981Z,100006.47
2022-09-07T00:47:32.623Z,100011.84
2022-09-07T00:50:10.450Z,100003.84
2022-09-07T00:52:39.710Z,100010.06
2022-09-07T00:55:12.583Z,100000.16
2022-09-07T00:57:46.932Z,100004.66
2022-09-07T01:00:14.354Z,100003.75
2022-09-07T01:02:42.021Z,99994.91
2022-09-07T01:05:42.689Z,100008.19
2022-09-07T01:08:12.115Z,99999.34
2022-09-07T01:10:40.365Z,99992.28
2022-09-07T01:13:08.439Z,99997.56
2022-09-07T01:15:54.179Z,99994.91
2022-09-07T01:18:47.107Z,99998.47
2022-09-07T01:22:04.273Z,99999.41
2022-09-07T01:25:16.821Z,99993.19
2022-09-07T01:28:42.188Z,99993.25
2022-09-07T01:31:43.529Z,99991.50
2022-09-07T01:34:23.881Z,99997.69
2022-09-07T01:37:38.897Z,99995.91
2022-09-07T01:40:56.829Z,99992.34
2022-09-07T01:43:47.400Z,99984.41
2022-09-07T01:46:54.138Z,99990.50
2022-09-07T01:49:28.924Z,99990.47
2022-09-07T01:52:06.373Z,99992.31
2022-09-07T01:54:45.692Z,99983.41
2022-09-07T01:57:28.708Z,99983.41
2022-09-07T02:00:14.782Z,99997.56
2022-09-07T02:03:03.937Z,99990.47
2022-09-07T02:05:43.329Z,99982.44
2022-09-07T02:08:18.108Z,99983.31
2022-09-07T02:11:04.666Z,99978.78
2022-09-07T02:14:09.540Z,99985.94
2022-09-07T02:16:59.008Z,99977.88
2022-09-07T02:19:36.313Z,99982.34
2022-09-07T02:22:14.582Z,99973.41
2022-09-07T02:24:50.100Z,99976.13
2022-09-07T02:27:34.420Z,99966.25
2022-09-07T02:30:01.909Z,99969.78
2022-09-07T02:32:29.330Z,99970.75
2022-09-07T02:34:56.815Z,99977.91
2022-09-07T02:37:27.424Z,99974.38
2022-09-07T02:39:55.131Z,99969.84
2022-09-07T02:42:22.553Z,99960.09
2022-09-07T02:44:50.286Z,99958.34
2022-09-07T02:48:20.082Z,99963.72
2022-09-07T02:51:14.553Z,99970.84
2022-09-07T02:54:15.920Z,99970.84
2022-09-07T02:57:27.455Z,99975.25
2022-09-07T03:00:25.964Z,99969.91
2022-09-07T03:03:18.235Z,99965.50
2022-09-07T03:06:03.765Z,99973.50
2022-09-07T03:08:47.257Z,99967.41
2022-09-07T03:11:15.373Z,99974.47
2022-09-07T03:13:42.668Z,99973.59
2022-09-07T03:16:15.761Z,99981.59
2022-09-07T03:18:44.306Z,99983.38
2022-09-07T03:21:11.614Z,99982.47
2022-09-07T03:23:39.135Z,99986.91
2022-09-07T03:26:06.482Z,99986.84
2022-09-07T03:28:33.893Z,99993.03
2022-09-07T03:31:02.867Z,99985.94
2022-09-07T03:33:30.200Z,99982.44
2022-09-07T03:36:02.516Z,99978.00
2022-09-07T03:38:31.099Z,99962.00
2022-09-07T03:41:05.834Z,99954.00
2022-09-07T03:43:34.427Z,99956.63
2022-09-07T03:46:05.965Z,99954.75
2022-09-07T03:48:35.296Z,99947.66
2022-09-07T03:51:10.053Z,99951.16
2022-09-07T03:53:42.973Z,99945.81
2022-09-07T03:56:22.686Z,99947.56
2022-09-07T03:58:51.766Z,99951.09
2022-09-07T04:01:24.662Z,99956.41
2022-09-07T04:03:53.733Z,99943.03
2022-09-07T04:06:21.161Z,99939.44
2022-09-07T04:08:49.112Z,99937.72
2022-09-07T04:11:19.586Z,99938.59
2022-09-07T04:13:46.996Z,99942.19
2022-09-07T04:16:23.431Z,99940.41
2022-09-07T04:18:51.810Z,99936.91
2022-09-07T04:21:19.257Z,99941.38
2022-09-07T04:23:46.604Z,99944.09
2022-09-07T04:26:30.399Z,99937.94
2022-09-07T04:29:01.167Z,99934.38
2022-09-07T04:31:28.673Z,99933.34
2022-09-07T04:33:56.629Z,99928.00
2022-09-07T04:36:27.294Z,99930.63
2022-09-07T04:39:01.529Z,99935.94
2022-09-07T04:41:31.592Z,99938.59
2022-09-07T04:44:04.687Z,99936.84
2022-09-07T04:46:35.893Z,99947.47
2022-09-07T04:49:09.458Z,99941.28
2022-09-07T04:51:39.767Z,99941.25
2022-09-07T04:54:07.301Z,99939.44
2022-09-07T04:56:35.220Z,99937.69
2022-09-07T04:59:03.626Z,99932.34
2022-09-07T05:01:31.295Z,99934.13
2022-09-07T05:04:01.350Z,99935.00
2022-09-07T05:06:28.995Z,99938.53
2022-09-07T05:08:58.678Z,99943.94
2022-09-07T05:11:29.525Z,99943.94
2022-09-07T05:13:59.870Z,99946.59
2022-09-07T05:16:28.550Z,99945.75
2022-09-07T05:19:01.505Z,99944.84
2022-09-07T05:21:33.188Z,99953.78
2022-09-07T05:24:02.481Z,99968.91
2022-09-07T05:26:33.915Z,99973.38
2022-09-07T05:31:54.673Z,99989.41
2022-09-07T05:34:29.988Z,99991.19
2022-09-07T05:36:57.924Z,99993.88
2022-09-07T05:39:25.904Z,99996.59
2022-09-07T05:41:53.738Z,99991.31
2022-09-07T05:47:09.166Z,99989.53
2022-09-07T05:49:36.553Z,99987.81
2022-09-07T05:52:04.077Z,99999.38
2022-09-07T05:54:31.357Z,100002.97
2022-09-07T05:56:58.939Z,100005.72
2022-09-07T05:59:26.378Z,100008.34
2022-09-07T06:01:53.884Z,100013.72
2022-09-07T06:04:21.316Z,100014.72
2022-09-07T06:07:17.657Z,100013.13
2022-09-07T06:12:24.209Z,100022.06
2022-09-07T06:14:51.397Z,100017.63
2022-09-07T06:17:18.727Z,100009.66
2022-09-07T06:19:46.025Z,100015.03
2022-09-07T06:22:13.318Z,100018.56
2022-09-07T06:24:40.529Z,100025.75
2022-09-07T06:27:07.850Z,100026.63
2022-09-07T06:29:35.810Z,100038.22
2022-09-07T06:34:52.593Z,100044.59
2022-09-07T06:37:20.078Z,100043.66
2022-09-07T06:39:48.806Z,100050.78
2022-09-07T06:42:16.862Z,100051.69
2022-09-07T06:44:45.049Z,100050.78
2022-09-07T06:47:12.852Z,100049.91
2022-09-07T06:49:40.256Z,100054.38
2022-09-07T06:52:07.653Z,100050.81
2022-09-07T06:57:22.379Z,100057.97
2022-09-07T06:59:49.886Z,100061.50
2022-09-07T07:02:17.391Z,100056.16
2022-09-07T07:04:46.492Z,100063.28
2022-09-07T07:07:14.623Z,100051.72
2022-09-07T07:09:42.583Z,100057.00
2022-09-07T07:12:11.186Z,100046.34
2022-09-07T07:14:43.931Z,100034.75
2022-09-07T07:17:13.627Z,100039.22
2022-09-07T07:19:40.994Z,100050.78
2022-09-07T07:22:23.821Z,100055.28
2022-09-07T07:24:56.003Z,100069.53
2022-09-07T07:27:23.482Z,100071.34
2022-09-07T07:29:52.379Z,100080.25
2022-09-07T07:32:20.060Z,100084.72
2022-09-07T07:34:47.533Z,100088.25
2022-09-07T07:37:16.162Z,100095.41
2022-09-07T07:42:36.296Z,100094.47
2022-09-07T07:47:53.158Z,100099.78
2022-09-07T07:50:36.259Z,100092.63
2022-09-07T07:55:53.198Z,100074.88
2022-09-07T07:58:21.013Z,100082.88
2022-09-07T08:00:54.608Z,100083.78
2022-09-07T08:03:24.559Z,100092.69
2022-09-07T08:05:52.371Z,100078.41
2022-09-07T08:08:20.600Z,100078.41
2022-09-07T08:10:48.178Z,100081.94
2022-09-07T08:13:20.513Z,100077.44
2022-09-07T08:15:48.376Z,100076.56
2022-09-07T08:18:17.484Z,100075.66
2022-09-07T08:20:45.209Z,100077.44
2022-09-07T08:23:12.715Z,100079.22
2022-09-07T08:25:54.608Z,100082.75
2022-09-07T08:28:24.772Z,100089.91
2022-09-07T08:30:53.091Z,100099.69
2022-09-07T08:33:20.941Z,100100.53
2022-09-07T08:36:07.233Z,100099.56
2022-09-07T08:38:36.663Z,100101.31
2022-09-07T08:41:49.984Z,100089.69
2022-09-07T08:44:47.277Z,100097.75
2022-09-07T08:47:33.352Z,100094.16
2022-09-07T08:50:23.202Z,100087.03
2022-09-07T08:53:13.523Z,100098.47
2022-09-07T08:55:55.917Z,100099.34
2022-09-07T08:58:49.757Z,100096.50
2022-09-07T09:01:41.125Z,100098.19
2022-09-07T09:04:29.536Z,100091.94
2022-09-07T09:07:36.274Z,100082.19
2022-09-07T09:10:28.816Z,100077.59
2022-09-07T09:13:58.597Z,100073.97
2022-09-07T09:16:44.089Z,100070.44
2022-09-07T09:19:45.001Z,100084.72
2022-09-07T09:22:19.723Z,100079.31
2022-09-07T09:24:53.665Z,100082.06
2022-09-07T09:27:20.857Z,100072.41
2022-09-07T09:29:47.978Z,100068.88
2022-09-07T09:32:41.612Z,100059.09
2022-09-07T09:35:39.965Z,100054.72
2022-09-07T09:38:36.661Z,100046.75
2022-09-07T09:41:10.528Z,100047.59
2022-09-07T09:43:58.143Z,100044.72
2022-09-07T09:46:35.715Z,100032.97
2022-09-07T09:49:19.893Z,100037.53
2022-09-07T09:54:43.708Z,100033.56
2022-09-07T10:01:22.359Z,100030.63
2022-09-07T10:06:21.617Z,100009.00
2022-09-07T10:09:02.284Z,100006.69
2022-09-07T10:12:06.656Z,100003.47
2022-09-07T10:14:45.737Z,100005.66
2022-09-07T10:17:32.408Z,99993.81
2022-09-07T10:20:22.254Z,99988.38
2022-09-07T10:22:52.324Z,99991.41
2022-09-07T10:25:45.446Z,99991.44
2022-09-07T10:28:21.462Z,99990.28
2022-09-07T10:31:32.477Z,99999.84
2022-09-07T10:34:40.483Z,100001.63
2022-09-07T10:37:12.037Z,99999.28
2022-09-07T10:40:37.965Z,99995.19
2022-09-07T10:43:41.288Z,99995.31
2022-09-07T10:47:01.439Z,100000.63
2022-09-07T10:53:40.576Z,99988.28
2022-09-07T10:56:33.457Z,99991.75
2022-09-07T11:00:11.486Z,99987.41
2022-09-07T11:03:32.820Z,99975.25
2022-09-07T11:06:26.204Z,99976.09
2022-09-07T11:09:40.786Z,99969.22
2022-09-07T11:12:28.153Z,99973.81
2022-09-07T11:15:13.741Z,99968.91
2022-09-07T11:17:58.205Z,99978.91
2022-09-07T11:20:32.334Z,99982.09
2022-09-07T11:23:12.020Z,99982.28
2022-09-07T11:26:26.757Z,99983.81
2022-09-07T11:29:31.114Z,99986.25
2022-09-07T11:32:17.608Z,99979.16
2022-09-07T11:35:02.117Z,99973.81
2022-09-07T11:37:59.094Z,99973.22
2022-09-07T11:41:02.621Z,99972.00
2022-09-07T11:43:42.019Z,99969.44
2022-09-07T11:46:43.694Z,99977.47
2022-09-07T11:49:25.937Z,99985.81
2022-09-07T11:52:09.290Z,99989.03
2022-09-07T11:54:59.092Z,99985.88
2022-09-07T11:57:56.583Z,99985.91
2022-09-07T12:00:41.503Z,99973.41
2022-09-07T12:04:02.755Z,99981.41
2022-09-07T12:06:56.840Z,99972.47
2022-09-07T12:10:16.976Z,99967.81
2022-09-07T12:13:23.865Z,99971.41
2022-09-07T12:16:19.329Z,99970.53
2022-09-07T12:19:24.538Z,99971.28
2022-09-07T12:21:51.565Z,99966.81
2022-09-07T12:24:51.644Z,99965.59
2022-09-07T12:27:21.892Z,99959.19
2022-09-07T12:30:02.546Z,99954.59
2022-09-07T12:32:56.590Z,99947.31
2022-09-07T12:35:37.110Z,99944.88
2022-09-07T12:38:31.136Z,99936.28
2022-09-07T12:41:00.158Z,99931.81
2022-09-07T12:43:48.523Z,99928.84
2022-09-07T12:46:38.774Z,99922.03
2022-09-07T12:49:45.798Z,99913.06
2022-09-07T12:52:42.471Z,99911.13
2022-09-07T12:55:29.533Z,99899.38
2022-09-07T12:58:14.137Z,99897.44
2022-09-07T13:01:12.569Z,99894.13
2022-09-07T13:04:50.122Z,99894.88
2022-09-07T13:08:11.290Z,99892.28
2022-09-07T13:10:43.957Z,99880.13
2022-09-07T13:16:17.665Z,99878.38
2022-09-07T13:18:46.383Z,99872.59
2022-09-07T13:21:14.913Z,99872.34
2022-09-07T13:27:41.607Z,99875.88
2022-09-07T13:30:50.334Z,99871.38
2022-09-07T13:33:29.863Z,99869.06
2022-09-07T13:36:05.565Z,99876.47
2022-09-07T13:38:36.355Z,99875.69
2022-09-07T13:41:42.321Z,99872.47
2022-09-07T13:44:26.138Z,99866.56
2022-09-07T13:47:37.852Z,99868.50
2022-09-07T13:50:47.196Z,99861.47
2022-09-07T13:53:34.440Z,99854.69
2022-09-07T13:56:14.465Z,99851.34
2022-09-07T13:58:50.028Z,99852.09
2022-09-07T14:01:27.694Z,99846.84
2022-09-07T14:04:07.418Z,99843.19
2022-09-07T14:06:38.001Z,99839.25
2022-09-07T14:09:16.465Z,99848.22
2022-09-07T14:11:54.286Z,99838.66
2022-09-07T14:14:27.552Z,99838.25
2022-09-07T14:17:04.803Z,99834.53
2022-09-07T14:19:39.852Z,99832.13
2022-09-07T14:22:20.736Z,99832.41
2022-09-07T14:25:01.406Z,99814.16
2022-09-07T14:27:44.885Z,99797.81
2022-09-07T14:30:31.977Z,99794.19
2022-09-07T14:33:22.072Z,99793.06
2022-09-07T14:35:49.716Z,99786.28
2022-09-07T14:41:19.001Z,99790.25
2022-09-07T14:43:58.611Z,99782.41
2022-09-07T14:46:34.370Z,99783.31
2022-09-07T14:49:21.546Z,99790.47
2022-09-07T14:51:49.619Z,99792.06
2022-09-07T14:54:37.235Z,99780.06
2022-09-07T14:57:13.149Z,99777.47
2022-09-07T14:59:46.713Z,99780.53
2022-09-07T15:02:21.972Z,99780.09
2022-09-07T15:05:25.779Z,99775.38
2022-09-07T15:07:58.547Z,99780.63
2022-09-07T15:10:28.970Z,99781.19
2022-09-07T15:12:59.783Z,99775.16
2022-09-07T15:15:37.434Z,99776.44
2022-09-07T15:19:18.401Z,99776.56
2022-09-07T15:21:46.021Z,99785.16
2022-09-07T15:24:13.620Z,99767.97
2022-09-07T15:27:03.362Z,99766.00
2022-09-07T15:29:31.759Z,99770.13
2022-09-07T15:32:04.293Z,99767.88
2022-09-07T15:34:33.425Z,99767.34
2022-09-07T15:37:03.685Z,99754.50
2022-09-07T15:39:31.715Z,99752.06
2022-09-07T15:42:58.794Z,99755.75
2022-09-07T15:44:46.262Z,99755.28
2022-09-07T15:50:00.594Z,99739.38
2022-09-07T15:52:28.118Z,99750.03
2022-09-07T15:54:59.414Z,99745.78
2022-09-07T16:00:15.049Z,99739.88
2022-09-07T16:05:31.411Z,99730.81
2022-09-07T16:10:55.777Z,99727.84
2022-09-07T16:13:31.727Z,99722.97
2022-09-07T16:15:59.942Z,99718.81
2022-09-07T16:18:31.227Z,99708.84
2022-09-07T16:21:11.954Z,99706.72
2022-09-07T16:23:44.072Z,99702.25
2022-09-07T16:26:12.681Z,99699.91
2022-09-07T16:28:47.116Z,99695.25
2022-09-07T16:31:34.389Z,99685.00
2022-09-07T16:34:04.815Z,99681.13
2022-09-07T16:36:32.077Z,99683.56
2022-09-07T16:39:00.996Z,99692.72
2022-09-07T16:41:33.218Z,99691.41
2022-09-07T16:44:00.459Z,99683.69
2022-09-07T16:46:35.275Z,99680.78
2022-09-07T16:49:03.121Z,99689.44
2022-09-07T16:51:30.299Z,99673.00
2022-09-07T16:53:58.947Z,99685.91
2022-09-07T16:56:30.218Z,99687.09
2022-09-07T16:59:04.508Z,99687.31
2022-09-07T17:01:35.543Z,99692.69
2022-09-07T17:04:08.203Z,99695.38
2022-09-07T17:06:40.129Z,99688.44
2022-09-07T17:09:07.925Z,99690.72
2022-09-07T17:11:37.016Z,99699.84
2022-09-07T17:14:08.369Z,99692.91
2022-09-07T17:16:39.655Z,99695.78
2022-09-07T17:21:59.659Z,99698.75
2022-09-07T17:24:27.107Z,99689.00
2022-09-07T17:26:54.591Z,99690.88
2022-09-07T17:29:21.888Z,99682.25
2022-09-07T17:34:37.553Z,99674.53
2022-09-07T17:37:04.999Z,99666.69
2022-09-07T17:39:32.375Z,99663.25
2022-09-07T17:42:00.926Z,99658.84
2022-09-07T17:44:33.268Z,99653.63
2022-09-07T17:47:03.475Z,99656.50
2022-09-07T17:49:30.941Z,99672.66
2022-09-07T17:51:59.853Z,99676.34
2022-09-07T17:54:27.816Z,99679.06
2022-09-07T17:56:55.385Z,99682.69
2022-09-07T18:02:15.364Z,99692.63
2022-09-07T18:04:42.949Z,99688.22
2022-09-07T18:07:10.435Z,99696.28
2022-09-07T18:09:37.712Z,99699.84
2022-09-07T18:12:05.394Z,99698.03
2022-09-07T18:14:32.857Z,99706.06
2022-09-07T18:17:00.344Z,99705.16
2022-09-07T18:19:28.408Z,99706.84
2022-09-07T18:21:55.722Z,99702.50
2022-09-07T18:24:24.530Z,99694.59
2022-09-07T18:26:55.112Z,99679.63
2022-09-07T18:29:34.351Z,99680.66
2022-09-07T18:32:08.535Z,99688.84
2022-09-07T18:34:40.589Z,99689.78
2022-09-07T18:37:09.294Z,99684.53
2022-09-07T18:39:36.756Z,99678.41
2022-09-07T18:42:04.257Z,99679.41
2022-09-07T18:47:27.509Z,99687.56
2022-09-07T18:49:56.052Z,99684.94
2022-09-07T18:55:11.802Z,99690.22
2022-09-07T18:57:39.324Z,99693.72
2022-09-07T19:00:09.509Z,99689.31
2022-09-07T19:02:37.258Z,99687.59
2022-09-07T19:07:52.756Z,99695.69
2022-09-07T19:10:20.204Z,99694.78
2022-09-07T19:12:47.603Z,99689.44
2022-09-07T19:15:15.589Z,99692.16
2022-09-07T19:17:42.891Z,99687.75
2022-09-07T19:20:10.602Z,99691.28
2022-09-07T19:22:38.068Z,99696.53
2022-09-07T19:25:06.266Z,99698.28
2022-09-07T19:27:33.887Z,99681.28
2022-09-07T19:30:02.922Z,99674.94
2022-09-07T19:32:33.230Z,99674.03
2022-09-07T19:35:00.495Z,99684.75
2022-09-07T19:37:29.798Z,99703.50
2022-09-07T19:39:57.012Z,99703.41
2022-09-07T19:42:25.838Z,99699.94
2022-09-07T19:44:55.178Z,99695.63
2022-09-07T19:47:25.287Z,99687.75
2022-09-07T19:49:54.026Z,99687.75
2022-09-07T19:52:21.212Z,99675.22
2022-09-07T19:54:50.246Z,99680.56
2022-09-07T19:57:17.808Z,99675.28
2022-09-07T19:59:47.199Z,99671.72
2022-09-07T20:02:15.015Z,99669.91
2022-09-07T20:04:43.341Z,99665.44
2022-09-07T20:07:11.963Z,99669.03
2022-09-07T20:09:44.324Z,99662.81
2022-09-07T20:12:12.667Z,99658.41
2022-09-07T20:14:42.598Z,99643.19
2022-09-07T20:17:12.531Z,99637.78
2022-09-07T20:19:40.300Z,99634.16
2022-09-07T20:22:08.762Z,99635.91
2022-09-07T20:24:35.984Z,99632.31
2022-09-07T20:27:09.036Z,99627.84
2022-09-07T20:29:44.273Z,99625.22
2022-09-07T20:32:11.723Z,99616.25
2022-09-07T20:34:39.791Z,99617.19
2022-09-07T20:37:07.565Z,99612.78
2022-09-07T20:39:39.108Z,99623.50
2022-09-07T20:42:08.111Z,99621.72
2022-09-07T20:44:37.074Z,99613.81
2022-09-07T20:47:06.160Z,99608.63
2022-09-07T20:49:33.872Z,99619.34
2022-09-07T20:52:01.425Z,99620.22
2022-09-07T20:54:28.744Z,99606.03
2022-09-07T20:56:56.165Z,99594.50
2022-09-07T20:59:24.085Z,99598.06
2022-09-07T21:01:52.058Z,99602.53
2022-09-07T21:04:19.391Z,99599.00
2022-09-07T21:06:47.050Z,99591.00
2022-09-07T21:09:14.628Z,99601.66
2022-09-07T21:11:45.026Z,99587.38
2022-09-07T21:14:14.637Z,99579.34
2022-09-07T21:16:42.729Z,99574.91
2022-09-07T21:19:11.146Z,99561.59
2022-09-07T21:21:42.723Z,99559.00
2022-09-07T21:24:30.244Z,99553.81
2022-09-07T21:26:57.377Z,99539.66
2022-09-07T21:29:25.642Z,99551.28
2022-09-07T21:31:54.651Z,99548.69
2022-09-07T21:34:22.997Z,99558.56
2022-09-07T21:36:50.917Z,99545.22
2022-09-07T21:39:19.189Z,99550.56
2022-09-07T21:41:46.634Z,99563.94
2022-09-07T21:44:16.124Z,99548.84
2022-09-07T21:46:45.570Z,99549.75
2022-09-07T21:49:13.537Z,99544.44
2022-09-07T21:51:41.233Z,99537.34
2022-09-07T21:54:09.240Z,99531.19
2022-09-07T21:56:36.905Z,99526.75
2022-09-07T21:59:06.191Z,99522.31
2022-09-07T22:01:33.842Z,99497.47
2022-09-07T22:04:04.919Z,99493.91
2022-09-07T22:06:33.675Z,99502.84
2022-09-07T22:09:02.535Z,99502.84
2022-09-07T22:11:30.458Z,99509.06
2022-09-07T22:14:02.698Z,99520.66
2022-09-07T22:16:33.986Z,99534.91
2022-09-07T22:19:01.683Z,99544.72
2022-09-07T22:21:30.678Z,99552.72
2022-09-07T22:24:05.194Z,99550.94
2022-09-07T22:26:39.486Z,99563.38
2022-09-07T22:29:11.184Z,99579.44
2022-09-07T22:31:39.856Z,99578.53
2022-09-07T22:34:09.334Z,99583.03
2022-09-07T22:36:44.913Z,99587.50
2022-09-07T22:39:17.739Z,99585.75
2022-09-07T22:41:47.187Z,99587.56
2022-09-07T22:44:18.029Z,99583.16
2022-09-07T22:46:47.411Z,99592.00
2022-09-07T22:49:16.853Z,99594.72
2022-09-07T22:51:44.773Z,99596.53
2022-09-07T22:54:12.245Z,99578.78
2022-09-07T22:56:40.439Z,99564.59
2022-09-07T22:59:10.304Z,99557.47
2022-09-07T23:01:38.947Z,99555.78
2022-09-07T23:04:07.751Z,99555.81
2022-09-07T23:06:39.399Z,99557.59
2022-09-07T23:09:17.301Z,99568.28
2022-09-07T23:11:47.048Z,99573.63
2022-09-07T23:14:20.026Z,99557.59
2022-09-07T23:16:48.260Z,99562.09
2022-09-07T23:19:19.523Z,99566.56
2022-09-07T23:21:47.603Z,99563.03
2022-09-07T23:24:18.124Z,99590.59
2022-09-07T23:26:46.852Z,99592.38
2022-09-07T23:29:16.255Z,99603.03
2022-09-07T23:31:45.672Z,99595.06
2022-09-07T23:34:15.751Z,99596.00
2022-09-07T23:36:45.787Z,99592.41
2022-09-07T23:39:13.248Z,99593.34
2022-09-07T23:41:40.439Z,99580.03
2022-09-07T23:44:08.786Z,99580.91
2022-09-07T23:46:36.368Z,99579.09
2022-09-07T23:49:03.805Z,99569.34
2022-09-07T23:51:31.298Z,99575.56
2022-09-07T23:53:58.681Z,99576.44
2022-09-07T23:56:50.965Z,99560.47
2022-09-07T23:59:18.409Z,99563.16
